sensor_id;sensor_type;location;lat;lon;timestamp;temperature;humidity
67358;HTU21D;54240;51.096;5.878;2023-06-19T00:02:09;23.55;-6.00
67358;HTU21D;54240;51.096;5.878;2023-06-19T00:04:35;23.57;-6.00
67358;HTU21D;54240;51.096;5.878;2023-06-19T00:07:01;23.52;-6.00
67358;HTU21D;54240;51.096;5.878;2023-06-19T00:09:27;23.50;-6.00
67358;HTU21D;54240;51.096;5.878;2023-06-19T00:11:53;23.47;-6.00
67358;HTU21D;54240;51.096;5.878;2023-06-19T00:14:19;23.40;-6.00
67358;HTU21D;54240;51.096;5.878;2023-06-19T00:16:44;23.41;-6.00
67358;HTU21D;54240;51.096;5.878;2023-06-19T00:19:11;23.39;-6.00
67358;HTU21D;54240;51.096;5.878;2023-06-19T00:21:38;23.32;-6.00
67358;HTU21D;54240;51.096;5.878;2023-06-19T00:24:05;23.30;-6.00
67358;HTU21D;54240;51.096;5.878;2023-06-19T00:26:31;23.38;-6.00
67358;HTU21D;54240;51.096;5.878;2023-06-19T00:28:57;23.37;-6.00
67358;HTU21D;54240;51.096;5.878;2023-06-19T00:31:24;23.18;-6.00
67358;HTU21D;54240;51.096;5.878;2023-06-19T00:33:49;23.20;-6.00
67358;HTU21D;54240;51.096;5.878;2023-06-19T00:36:17;23.18;-6.00
67358;HTU21D;54240;51.096;5.878;2023-06-19T00:38:47;23.22;-6.00
67358;HTU21D;54240;51.096;5.878;2023-06-19T00:41:16;23.24;-6.00
67358;HTU21D;54240;51.096;5.878;2023-06-19T00:43:44;23.27;-6.00
67358;HTU21D;54240;51.096;5.878;2023-06-19T00:46:11;23.27;-6.00
67358;HTU21D;54240;51.096;5.878;2023-06-19T00:48:37;23.38;-6.00
67358;HTU21D;54240;51.096;5.878;2023-06-19T00:51:04;23.40;-6.00
67358;HTU21D;54240;51.096;5.878;2023-06-19T00:53:30;23.38;-6.00
67358;HTU21D;54240;51.096;5.878;2023-06-19T00:55:59;23.35;-6.00
67358;HTU21D;54240;51.096;5.878;2023-06-19T00:58:25;23.21;-6.00
67358;HTU21D;54240;51.096;5.878;2023-06-19T01:00:51;23.15;-6.00
67358;HTU21D;54240;51.096;5.878;2023-06-19T01:03:17;23.15;-6.00
67358;HTU21D;54240;51.096;5.878;2023-06-19T01:05:47;23.20;-6.00
67358;HTU21D;54240;51.096;5.878;2023-06-19T01:11:00;23.14;-6.00
67358;HTU21D;54240;51.096;5.878;2023-06-19T01:13:48;22.92;-6.00
67358;HTU21D;54240;51.096;5.878;2023-06-19T01:16:17;0.00;0.00
67358;HTU21D;54240;51.096;5.878;2023-06-19T01:18:43;22.77;-6.00
67358;HTU21D;54240;51.096;5.878;2023-06-19T01:21:15;22.73;-6.00
67358;HTU21D;54240;51.096;5.878;2023-06-19T01:23:42;22.66;-6.00
67358;HTU21D;54240;51.096;5.878;2023-06-19T01:26:09;22.58;-6.00
67358;HTU21D;54240;51.096;5.878;2023-06-19T01:28:42;22.55;-6.00
67358;HTU21D;54240;51.096;5.878;2023-06-19T01:31:15;22.58;-6.00
67358;HTU21D;54240;51.096;5.878;2023-06-19T01:33:46;22.58;-6.00
67358;HTU21D;54240;51.096;5.878;2023-06-19T01:36:15;22.51;-6.00
67358;HTU21D;54240;51.096;5.878;2023-06-19T01:38:44;22.49;-6.00
67358;HTU21D;54240;51.096;5.878;2023-06-19T01:41:11;22.46;-6.00
67358;HTU21D;54240;51.096;5.878;2023-06-19T01:43:42;22.37;-6.00
67358;HTU21D;54240;51.096;5.878;2023-06-19T01:46:08;22.46;-6.00
67358;HTU21D;54240;51.096;5.878;2023-06-19T01:48:38;22.32;-6.00
67358;HTU21D;54240;51.096;5.878;2023-06-19T01:51:06;22.35;-6.00
67358;HTU21D;54240;51.096;5.878;2023-06-19T01:53:31;22.17;-6.00
67358;HTU21D;54240;51.096;5.878;2023-06-19T01:55:58;22.18;-6.00
67358;HTU21D;54240;51.096;5.878;2023-06-19T01:58:24;22.20;-6.00
67358;HTU21D;54240;51.096;5.878;2023-06-19T02:00:50;22.16;-6.00
67358;HTU21D;54240;51.096;5.878;2023-06-19T02:03:16;22.13;-6.00
67358;HTU21D;54240;51.096;5.878;2023-06-19T02:05:42;22.16;-6.00
67358;HTU21D;54240;51.096;5.878;2023-06-19T02:08:09;22.10;-6.00
67358;HTU21D;54240;51.096;5.878;2023-06-19T02:10:36;22.11;-6.00
67358;HTU21D;54240;51.096;5.878;2023-06-19T02:13:02;22.13;-6.00
67358;HTU21D;54240;51.096;5.878;2023-06-19T02:15:28;21.97;-6.00
67358;HTU21D;54240;51.096;5.878;2023-06-19T02:17:57;22.07;-6.00
67358;HTU21D;54240;51.096;5.878;2023-06-19T02:20:25;21.80;-6.00
67358;HTU21D;54240;51.096;5.878;2023-06-19T02:22:51;21.68;-6.00
67358;HTU21D;54240;51.096;5.878;2023-06-19T02:25:18;21.51;-6.00
67358;HTU21D;54240;51.096;5.878;2023-06-19T02:27:44;21.33;-6.00
67358;HTU21D;54240;51.096;5.878;2023-06-19T02:30:10;21.30;-6.00
67358;HTU21D;54240;51.096;5.878;2023-06-19T02:32:36;21.28;-6.00
67358;HTU21D;54240;51.096;5.878;2023-06-19T02:35:05;21.25;-6.00
67358;HTU21D;54240;51.096;5.878;2023-06-19T02:37:32;21.14;-6.00
67358;HTU21D;54240;51.096;5.878;2023-06-19T02:40:05;21.04;-6.00
67358;HTU21D;54240;51.096;5.878;2023-06-19T02:42:33;21.10;-6.00
67358;HTU21D;54240;51.096;5.878;2023-06-19T02:45:00;20.98;-6.00
67358;HTU21D;54240;51.096;5.878;2023-06-19T02:47:31;20.90;-6.00
67358;HTU21D;54240;51.096;5.878;2023-06-19T02:50:01;20.90;-6.00
67358;HTU21D;54240;51.096;5.878;2023-06-19T02:52:28;-45.49;-6.00
67358;HTU21D;54240;51.096;5.878;2023-06-19T02:54:54;20.86;-6.00
67358;HTU21D;54240;51.096;5.878;2023-06-19T02:57:20;20.85;-6.00
67358;HTU21D;54240;51.096;5.878;2023-06-19T02:59:46;20.76;-6.00
67358;HTU21D;54240;51.096;5.878;2023-06-19T03:02:14;20.53;-6.00
67358;HTU21D;54240;51.096;5.878;2023-06-19T03:04:43;20.45;-6.00
67358;HTU21D;54240;51.096;5.878;2023-06-19T03:07:09;20.45;-6.00
67358;HTU21D;54240;51.096;5.878;2023-06-19T03:09:36;20.62;-6.00
67358;HTU21D;54240;51.096;5.878;2023-06-19T03:12:02;20.61;-6.00
67358;HTU21D;54240;51.096;5.878;2023-06-19T03:14:28;20.49;-6.00
67358;HTU21D;54240;51.096;5.878;2023-06-19T03:16:54;20.47;-6.00
67358;HTU21D;54240;51.096;5.878;2023-06-19T03:19:20;20.56;-6.00
67358;HTU21D;54240;51.096;5.878;2023-06-19T03:21:46;20.51;-6.00
67358;HTU21D;54240;51.096;5.878;2023-06-19T03:24:12;20.48;-6.00
67358;HTU21D;54240;51.096;5.878;2023-06-19T03:26:38;20.43;-6.00
67358;HTU21D;54240;51.096;5.878;2023-06-19T03:29:04;20.29;-6.00
67358;HTU21D;54240;51.096;5.878;2023-06-19T03:31:44;20.24;-6.00
67358;HTU21D;54240;51.096;5.878;2023-06-19T03:34:10;20.34;-6.00
67358;HTU21D;54240;51.096;5.878;2023-06-19T03:36:37;20.29;-6.00
67358;HTU21D;54240;51.096;5.878;2023-06-19T03:39:07;20.11;-6.00
67358;HTU21D;54240;51.096;5.878;2023-06-19T03:41:33;20.20;-6.00
67358;HTU21D;54240;51.096;5.878;2023-06-19T03:43:59;20.20;-6.00
67358;HTU21D;54240;51.096;5.878;2023-06-19T03:46:25;20.35;-6.00
67358;HTU21D;54240;51.096;5.878;2023-06-19T03:48:51;20.46;-6.00
67358;HTU21D;54240;51.096;5.878;2023-06-19T03:51:17;20.43;-6.00
67358;HTU21D;54240;51.096;5.878;2023-06-19T03:53:43;20.45;-6.00
67358;HTU21D;54240;51.096;5.878;2023-06-19T03:56:09;20.57;-6.00
67358;HTU21D;54240;51.096;5.878;2023-06-19T03:58:35;20.54;-6.00
67358;HTU21D;54240;51.096;5.878;2023-06-19T04:01:01;20.53;-6.00
67358;HTU21D;54240;51.096;5.878;2023-06-19T04:03:28;20.43;-6.00
67358;HTU21D;54240;51.096;5.878;2023-06-19T04:05:53;20.46;-6.00
67358;HTU21D;54240;51.096;5.878;2023-06-19T04:08:19;20.44;-6.00
67358;HTU21D;54240;51.096;5.878;2023-06-19T04:10:45;20.45;-6.00
67358;HTU21D;54240;51.096;5.878;2023-06-19T04:13:11;20.47;-6.00
67358;HTU21D;54240;51.096;5.878;2023-06-19T04:15:37;20.60;-6.00
67358;HTU21D;54240;51.096;5.878;2023-06-19T04:18:04;20.57;-6.00
67358;HTU21D;54240;51.096;5.878;2023-06-19T04:20:30;20.40;-6.00
67358;HTU21D;54240;51.096;5.878;2023-06-19T04:22:55;20.50;-6.00
67358;HTU21D;54240;51.096;5.878;2023-06-19T04:25:21;20.48;-6.00
67358;HTU21D;54240;51.096;5.878;2023-06-19T04:27:47;20.48;-6.00
67358;HTU21D;54240;51.096;5.878;2023-06-19T04:30:13;20.61;-6.00
67358;HTU21D;54240;51.096;5.878;2023-06-19T04:32:39;20.71;-6.00
67358;HTU21D;54240;51.096;5.878;2023-06-19T04:35:10;20.73;-6.00
67358;HTU21D;54240;51.096;5.878;2023-06-19T04:37:36;20.79;-6.00
67358;HTU21D;54240;51.096;5.878;2023-06-19T04:40:02;20.85;-6.00
67358;HTU21D;54240;51.096;5.878;2023-06-19T04:42:29;20.68;-6.00
67358;HTU21D;54240;51.096;5.878;2023-06-19T04:44:55;20.68;-6.00
67358;HTU21D;54240;51.096;5.878;2023-06-19T04:47:25;20.75;-6.00
67358;HTU21D;54240;51.096;5.878;2023-06-19T04:49:50;20.62;-6.00
67358;HTU21D;54240;51.096;5.878;2023-06-19T04:52:16;20.77;-6.00
67358;HTU21D;54240;51.096;5.878;2023-06-19T04:54:44;20.73;-6.00
67358;HTU21D;54240;51.096;5.878;2023-06-19T04:57:10;20.55;-6.00
67358;HTU21D;54240;51.096;5.878;2023-06-19T04:59:36;20.51;-5.53
67358;HTU21D;54240;51.096;5.878;2023-06-19T05:02:02;20.74;-6.00
67358;HTU21D;54240;51.096;5.878;2023-06-19T05:04:28;20.72;-6.00
67358;HTU21D;54240;51.096;5.878;2023-06-19T05:06:58;20.68;-6.00
67358;HTU21D;54240;51.096;5.878;2023-06-19T05:09:24;20.61;-3.06
67358;HTU21D;54240;51.096;5.878;2023-06-19T05:11:50;20.71;-6.00
67358;HTU21D;54240;51.096;5.878;2023-06-19T05:14:16;20.65;-4.34
67358;HTU21D;54240;51.096;5.878;2023-06-19T05:16:42;20.54;19.25
67358;HTU21D;54240;51.096;5.878;2023-06-19T05:19:08;20.39;73.05
67358;HTU21D;54240;51.096;5.878;2023-06-19T05:21:33;20.30;57.35
67358;HTU21D;54240;51.096;5.878;2023-06-19T05:23:59;20.21;76.32
67358;HTU21D;54240;51.096;5.878;2023-06-19T05:26:25;20.16;96.43
67358;HTU21D;54240;51.096;5.878;2023-06-19T05:28:52;20.17;104.16
67358;HTU21D;54240;51.096;5.878;2023-06-19T05:31:18;20.37;87.57
67358;HTU21D;54240;51.096;5.878;2023-06-19T05:33:44;20.33;69.36
67358;HTU21D;54240;51.096;5.878;2023-06-19T05:36:10;20.46;67.26
67358;HTU21D;54240;51.096;5.878;2023-06-19T05:38:36;20.50;72.42
67358;HTU21D;54240;51.096;5.878;2023-06-19T05:41:02;20.51;77.21
67358;HTU21D;54240;51.096;5.878;2023-06-19T05:43:28;20.39;91.85
67358;HTU21D;54240;51.096;5.878;2023-06-19T05:45:55;20.25;117.08
67358;HTU21D;54240;51.096;5.878;2023-06-19T05:48:25;20.20;118.99
67358;HTU21D;54240;51.096;5.878;2023-06-19T05:50:51;20.22;118.99
67358;HTU21D;54240;51.096;5.878;2023-06-19T05:53:17;19.75;118.99
67358;HTU21D;54240;51.096;5.878;2023-06-19T05:55:43;19.44;118.99
67358;HTU21D;54240;51.096;5.878;2023-06-19T05:58:09;19.24;118.99
67358;HTU21D;54240;51.096;5.878;2023-06-19T06:00:35;18.97;118.99
67358;HTU21D;54240;51.096;5.878;2023-06-19T06:03:01;19.05;118.99
67358;HTU21D;54240;51.096;5.878;2023-06-19T06:05:28;19.01;118.99
67358;HTU21D;54240;51.096;5.878;2023-06-19T06:07:55;19.12;118.99
67358;HTU21D;54240;51.096;5.878;2023-06-19T06:10:22;19.29;118.99
67358;HTU21D;54240;51.096;5.878;2023-06-19T06:12:48;19.45;118.99
67358;HTU21D;54240;51.096;5.878;2023-06-19T06:15:15;19.53;118.99
67358;HTU21D;54240;51.096;5.878;2023-06-19T06:17:41;19.58;118.99
67358;HTU21D;54240;51.096;5.878;2023-06-19T06:20:07;19.65;118.99
67358;HTU21D;54240;51.096;5.878;2023-06-19T06:22:38;19.77;118.99
67358;HTU21D;54240;51.096;5.878;2023-06-19T06:25:05;19.82;118.99
67358;HTU21D;54240;51.096;5.878;2023-06-19T06:27:31;19.90;118.99
67358;HTU21D;54240;51.096;5.878;2023-06-19T06:29:57;20.07;118.99
67358;HTU21D;54240;51.096;5.878;2023-06-19T06:32:23;20.10;118.99
67358;HTU21D;54240;51.096;5.878;2023-06-19T06:34:48;20.28;118.99
67358;HTU21D;54240;51.096;5.878;2023-06-19T06:37:14;20.47;118.99
67358;HTU21D;54240;51.096;5.878;2023-06-19T06:39:43;20.48;118.99
67358;HTU21D;54240;51.096;5.878;2023-06-19T06:42:08;20.60;118.99
67358;HTU21D;54240;51.096;5.878;2023-06-19T06:44:35;20.73;118.99
67358;HTU21D;54240;51.096;5.878;2023-06-19T06:47:00;20.86;118.99
67358;HTU21D;54240;51.096;5.878;2023-06-19T06:49:26;21.08;113.93
67358;HTU21D;54240;51.096;5.878;2023-06-19T06:51:52;21.20;99.09
67358;HTU21D;54240;51.096;5.878;2023-06-19T06:54:18;21.29;60.99
67358;HTU21D;54240;51.096;5.878;2023-06-19T06:56:44;21.42;78.21
67358;HTU21D;54240;51.096;5.878;2023-06-19T06:59:13;21.59;58.68
67358;HTU21D;54240;51.096;5.878;2023-06-19T07:01:44;21.80;40.08
67358;HTU21D;54240;51.096;5.878;2023-06-19T07:04:10;21.91;14.28
67358;HTU21D;54240;51.096;5.878;2023-06-19T07:06:36;22.13;14.87
67358;HTU21D;54240;51.096;5.878;2023-06-19T07:09:02;22.05;-6.00
67358;HTU21D;54240;51.096;5.878;2023-06-19T07:11:28;22.14;-6.00
67358;HTU21D;54240;51.096;5.878;2023-06-19T07:13:53;22.27;-6.00
67358;HTU21D;54240;51.096;5.878;2023-06-19T07:16:19;22.25;-6.00
67358;HTU21D;54240;51.096;5.878;2023-06-19T07:18:45;22.27;-6.00
67358;HTU21D;54240;51.096;5.878;2023-06-19T07:21:12;22.49;-6.00
67358;HTU21D;54240;51.096;5.878;2023-06-19T07:23:43;22.55;-6.00
67358;HTU21D;54240;51.096;5.878;2023-06-19T07:26:10;22.51;-6.00
67358;HTU21D;54240;51.096;5.878;2023-06-19T07:28:36;22.57;-6.00
67358;HTU21D;54240;51.096;5.878;2023-06-19T07:31:03;22.80;-6.00
67358;HTU21D;54240;51.096;5.878;2023-06-19T07:33:29;22.76;-6.00
67358;HTU21D;54240;51.096;5.878;2023-06-19T07:35:56;22.92;-6.00
67358;HTU21D;54240;51.096;5.878;2023-06-19T07:38:22;23.24;-6.00
67358;HTU21D;54240;51.096;5.878;2023-06-19T07:40:47;23.25;-6.00
67358;HTU21D;54240;51.096;5.878;2023-06-19T07:43:13;23.27;-6.00
67358;HTU21D;54240;51.096;5.878;2023-06-19T07:45:39;23.61;-6.00
67358;HTU21D;54240;51.096;5.878;2023-06-19T07:48:05;24.04;-6.00
67358;HTU21D;54240;51.096;5.878;2023-06-19T07:50:31;24.10;-6.00
67358;HTU21D;54240;51.096;5.878;2023-06-19T07:52:58;24.10;-6.00
67358;HTU21D;54240;51.096;5.878;2023-06-19T07:55:23;23.76;-6.00
67358;HTU21D;54240;51.096;5.878;2023-06-19T07:57:49;23.76;-6.00
67358;HTU21D;54240;51.096;5.878;2023-06-19T08:00:15;24.00;-6.00
67358;HTU21D;54240;51.096;5.878;2023-06-19T08:02:42;24.12;-6.00
67358;HTU21D;54240;51.096;5.878;2023-06-19T08:05:09;24.16;-6.00
67358;HTU21D;54240;51.096;5.878;2023-06-19T08:07:35;24.16;-6.00
67358;HTU21D;54240;51.096;5.878;2023-06-19T08:10:02;24.25;-6.00
67358;HTU21D;54240;51.096;5.878;2023-06-19T08:12:30;24.19;-6.00
67358;HTU21D;54240;51.096;5.878;2023-06-19T08:14:56;24.26;-6.00
67358;HTU21D;54240;51.096;5.878;2023-06-19T08:17:21;24.26;-6.00
67358;HTU21D;54240;51.096;5.878;2023-06-19T08:19:48;24.48;-6.00
67358;HTU21D;54240;51.096;5.878;2023-06-19T08:22:13;24.51;-6.00
67358;HTU21D;54240;51.096;5.878;2023-06-19T08:24:39;24.87;-6.00
67358;HTU21D;54240;51.096;5.878;2023-06-19T08:27:07;24.90;-6.00
67358;HTU21D;54240;51.096;5.878;2023-06-19T08:29:33;25.04;-6.00
67358;HTU21D;54240;51.096;5.878;2023-06-19T08:31:59;25.18;-6.00
67358;HTU21D;54240;51.096;5.878;2023-06-19T08:34:25;25.25;-6.00
67358;HTU21D;54240;51.096;5.878;2023-06-19T08:36:51;25.37;-6.00
67358;HTU21D;54240;51.096;5.878;2023-06-19T08:39:17;25.42;-6.00
67358;HTU21D;54240;51.096;5.878;2023-06-19T08:41:43;25.44;-6.00
67358;HTU21D;54240;51.096;5.878;2023-06-19T08:44:09;25.58;-6.00
67358;HTU21D;54240;51.096;5.878;2023-06-19T08:46:35;26.09;-6.00
67358;HTU21D;54240;51.096;5.878;2023-06-19T08:49:04;26.46;-6.00
67358;HTU21D;54240;51.096;5.878;2023-06-19T08:51:31;26.73;-6.00
67358;HTU21D;54240;51.096;5.878;2023-06-19T08:54:03;27.36;-6.00
67358;HTU21D;54240;51.096;5.878;2023-06-19T08:56:30;27.17;-6.00
67358;HTU21D;54240;51.096;5.878;2023-06-19T09:01:36;27.61;-6.00
67358;HTU21D;54240;51.096;5.878;2023-06-19T09:04:13;27.53;-6.00
67358;HTU21D;54240;51.096;5.878;2023-06-19T09:06:53;27.38;-6.00
67358;HTU21D;54240;51.096;5.878;2023-06-19T09:09:21;27.08;-6.00
67358;HTU21D;54240;51.096;5.878;2023-06-19T09:12:08;27.16;-6.00
67358;HTU21D;54240;51.096;5.878;2023-06-19T09:14:44;27.07;-6.00
67358;HTU21D;54240;51.096;5.878;2023-06-19T09:17:13;27.08;-6.00
67358;HTU21D;54240;51.096;5.878;2023-06-19T09:19:51;27.17;-6.00
67358;HTU21D;54240;51.096;5.878;2023-06-19T09:22:18;27.20;-6.00
67358;HTU21D;54240;51.096;5.878;2023-06-19T09:24:47;27.63;-6.00
67358;HTU21D;54240;51.096;5.878;2023-06-19T09:27:15;28.38;-6.00
67358;HTU21D;54240;51.096;5.878;2023-06-19T09:29:49;27.96;-6.00
67358;HTU21D;54240;51.096;5.878;2023-06-19T09:34:48;28.29;-6.00
67358;HTU21D;54240;51.096;5.878;2023-06-19T09:37:22;28.42;-6.00
67358;HTU21D;54240;51.096;5.878;2023-06-19T09:40:00;27.86;-6.00
67358;HTU21D;54240;51.096;5.878;2023-06-19T09:42:34;27.95;-6.00
67358;HTU21D;54240;51.096;5.878;2023-06-19T09:45:02;28.23;-6.00
67358;HTU21D;54240;51.096;5.878;2023-06-19T09:47:41;28.79;-6.00
67358;HTU21D;54240;51.096;5.878;2023-06-19T09:50:08;28.50;-6.00
67358;HTU21D;54240;51.096;5.878;2023-06-19T09:52:36;28.75;-6.00
67358;HTU21D;54240;51.096;5.878;2023-06-19T09:55:06;29.34;-6.00
67358;HTU21D;54240;51.096;5.878;2023-06-19T09:57:35;29.43;-6.00
67358;HTU21D;54240;51.096;5.878;2023-06-19T10:00:04;29.11;-6.00
67358;HTU21D;54240;51.096;5.878;2023-06-19T10:02:47;28.79;-6.00
67358;HTU21D;54240;51.096;5.878;2023-06-19T10:05:13;28.63;-6.00
67358;HTU21D;54240;51.096;5.878;2023-06-19T10:07:46;28.52;-6.00
67358;HTU21D;54240;51.096;5.878;2023-06-19T10:10:25;28.76;-6.00
67358;HTU21D;54240;51.096;5.878;2023-06-19T10:12:55;29.31;-6.00
67358;HTU21D;54240;51.096;5.878;2023-06-19T10:18:03;29.65;-6.00
67358;HTU21D;54240;51.096;5.878;2023-06-19T10:20:32;29.66;-6.00
67358;HTU21D;54240;51.096;5.878;2023-06-19T10:25:34;29.38;-6.00
67358;HTU21D;54240;51.096;5.878;2023-06-19T10:28:00;29.17;-6.00
67358;HTU21D;54240;51.096;5.878;2023-06-19T10:30:26;29.61;-6.00
67358;HTU21D;54240;51.096;5.878;2023-06-19T10:32:52;29.61;-6.00
67358;HTU21D;54240;51.096;5.878;2023-06-19T10:35:19;30.08;-6.00
67358;HTU21D;54240;51.096;5.878;2023-06-19T10:37:50;30.69;-6.00
67358;HTU21D;54240;51.096;5.878;2023-06-19T10:40:17;30.06;-6.00
67358;HTU21D;54240;51.096;5.878;2023-06-19T10:42:43;30.08;-6.00
67358;HTU21D;54240;51.096;5.878;2023-06-19T10:45:11;29.60;-6.00
67358;HTU21D;54240;51.096;5.878;2023-06-19T10:47:39;29.08;-6.00
67358;HTU21D;54240;51.096;5.878;2023-06-19T10:50:15;29.12;-6.00
67358;HTU21D;54240;51.096;5.878;2023-06-19T10:52:44;29.35;-6.00
67358;HTU21D;54240;51.096;5.878;2023-06-19T10:55:11;29.64;-6.00
67358;HTU21D;54240;51.096;5.878;2023-06-19T10:57:39;29.80;-6.00
67358;HTU21D;54240;51.096;5.878;2023-06-19T11:00:06;29.87;-6.00
67358;HTU21D;54240;51.096;5.878;2023-06-19T11:02:42;29.96;-6.00
67358;HTU21D;54240;51.096;5.878;2023-06-19T11:05:10;30.03;-6.00
67358;HTU21D;54240;51.096;5.878;2023-06-19T11:07:36;29.75;-6.00
67358;HTU21D;54240;51.096;5.878;2023-06-19T11:10:03;29.93;-6.00
67358;HTU21D;54240;51.096;5.878;2023-06-19T11:12:31;29.78;-6.00
67358;HTU21D;54240;51.096;5.878;2023-06-19T11:14:57;29.54;-6.00
67358;HTU21D;54240;51.096;5.878;2023-06-19T11:17:23;30.07;-6.00
67358;HTU21D;54240;51.096;5.878;2023-06-19T11:19:51;30.06;-6.00
67358;HTU21D;54240;51.096;5.878;2023-06-19T11:22:17;29.79;-6.00
67358;HTU21D;54240;51.096;5.878;2023-06-19T11:24:46;30.15;-6.00
67358;HTU21D;54240;51.096;5.878;2023-06-19T11:27:22;30.31;-6.00
67358;HTU21D;54240;51.096;5.878;2023-06-19T11:29:58;29.81;-6.00
67358;HTU21D;54240;51.096;5.878;2023-06-19T11:32:34;29.70;-6.00
67358;HTU21D;54240;51.096;5.878;2023-06-19T11:35:09;29.47;-6.00
67358;HTU21D;54240;51.096;5.878;2023-06-19T11:37:35;29.70;-6.00
67358;HTU21D;54240;51.096;5.878;2023-06-19T11:40:02;30.31;-6.00
67358;HTU21D;54240;51.096;5.878;2023-06-19T11:42:52;30.45;-6.00
67358;HTU21D;54240;51.096;5.878;2023-06-19T11:45:18;30.56;-6.00
67358;HTU21D;54240;51.096;5.878;2023-06-19T11:47:45;30.52;-6.00
67358;HTU21D;54240;51.096;5.878;2023-06-19T11:50:15;30.56;-6.00
67358;HTU21D;54240;51.096;5.878;2023-06-19T11:52:43;30.45;-6.00
67358;HTU21D;54240;51.096;5.878;2023-06-19T11:55:10;30.19;-6.00
67358;HTU21D;54240;51.096;5.878;2023-06-19T11:57:36;29.98;-6.00
67358;HTU21D;54240;51.096;5.878;2023-06-19T12:00:02;30.27;-6.00
67358;HTU21D;54240;51.096;5.878;2023-06-19T12:02:38;30.19;-6.00
67358;HTU21D;54240;51.096;5.878;2023-06-19T12:05:04;30.16;-6.00
67358;HTU21D;54240;51.096;5.878;2023-06-19T12:07:30;30.18;-6.00
67358;HTU21D;54240;51.096;5.878;2023-06-19T12:09:56;30.09;-6.00
67358;HTU21D;54240;51.096;5.878;2023-06-19T12:12:22;30.17;-6.00
67358;HTU21D;54240;51.096;5.878;2023-06-19T12:14:48;30.20;-6.00
67358;HTU21D;54240;51.096;5.878;2023-06-19T12:17:13;30.52;-6.00
67358;HTU21D;54240;51.096;5.878;2023-06-19T12:19:39;30.70;-6.00
67358;HTU21D;54240;51.096;5.878;2023-06-19T12:22:05;30.91;-6.00
67358;HTU21D;54240;51.096;5.878;2023-06-19T12:24:31;30.59;-6.00
67358;HTU21D;54240;51.096;5.878;2023-06-19T12:26:57;30.67;-6.00
67358;HTU21D;54240;51.096;5.878;2023-06-19T12:29:23;30.50;-6.00
67358;HTU21D;54240;51.096;5.878;2023-06-19T12:31:49;30.31;-6.00
67358;HTU21D;54240;51.096;5.878;2023-06-19T12:34:15;30.18;-6.00
67358;HTU21D;54240;51.096;5.878;2023-06-19T12:36:43;30.49;-6.00
67358;HTU21D;54240;51.096;5.878;2023-06-19T12:39:10;30.57;-6.00
67358;HTU21D;54240;51.096;5.878;2023-06-19T12:41:42;30.91;-6.00
67358;HTU21D;54240;51.096;5.878;2023-06-19T12:44:07;30.83;-6.00
67358;HTU21D;54240;51.096;5.878;2023-06-19T12:46:33;30.90;-6.00
67358;HTU21D;54240;51.096;5.878;2023-06-19T12:48:59;30.11;-6.00
67358;HTU21D;54240;51.096;5.878;2023-06-19T12:51:25;30.39;-6.00
67358;HTU21D;54240;51.096;5.878;2023-06-19T12:53:51;30.96;-6.00
67358;HTU21D;54240;51.096;5.878;2023-06-19T12:56:17;31.31;-6.00
67358;HTU21D;54240;51.096;5.878;2023-06-19T12:58:42;31.09;-6.00
67358;HTU21D;54240;51.096;5.878;2023-06-19T13:01:08;31.00;-6.00
67358;HTU21D;54240;51.096;5.878;2023-06-19T13:03:34;30.90;-6.00
67358;HTU21D;54240;51.096;5.878;2023-06-19T13:06:00;30.49;-6.00
67358;HTU21D;54240;51.096;5.878;2023-06-19T13:08:26;30.36;-6.00
67358;HTU21D;54240;51.096;5.878;2023-06-19T13:10:51;30.68;-6.00
67358;HTU21D;54240;51.096;5.878;2023-06-19T13:13:17;30.97;-6.00
67358;HTU21D;54240;51.096;5.878;2023-06-19T13:15:43;31.18;-6.00
67358;HTU21D;54240;51.096;5.878;2023-06-19T13:18:09;31.01;-6.00
67358;HTU21D;54240;51.096;5.878;2023-06-19T13:20:35;30.83;-6.00
67358;HTU21D;54240;51.096;5.878;2023-06-19T13:23:01;30.52;-6.00
67358;HTU21D;54240;51.096;5.878;2023-06-19T13:25:26;30.83;-6.00
67358;HTU21D;54240;51.096;5.878;2023-06-19T13:27:52;30.97;-6.00
67358;HTU21D;54240;51.096;5.878;2023-06-19T13:30:19;31.00;-6.00
67358;HTU21D;54240;51.096;5.878;2023-06-19T13:32:45;31.07;-6.00
67358;HTU21D;54240;51.096;5.878;2023-06-19T13:35:11;31.00;-6.00
67358;HTU21D;54240;51.096;5.878;2023-06-19T13:37:37;30.89;-6.00
67358;HTU21D;54240;51.096;5.878;2023-06-19T13:40:07;31.13;-6.00
67358;HTU21D;54240;51.096;5.878;2023-06-19T13:42:33;31.24;-6.00
67358;HTU21D;54240;51.096;5.878;2023-06-19T13:45:01;30.71;-6.00
67358;HTU21D;54240;51.096;5.878;2023-06-19T13:47:28;30.95;-6.00
67358;HTU21D;54240;51.096;5.878;2023-06-19T13:49:53;31.01;-6.00
67358;HTU21D;54240;51.096;5.878;2023-06-19T13:52:19;31.00;-6.00
67358;HTU21D;54240;51.096;5.878;2023-06-19T13:54:45;30.96;-6.00
67358;HTU21D;54240;51.096;5.878;2023-06-19T13:57:11;31.28;-6.00
67358;HTU21D;54240;51.096;5.878;2023-06-19T13:59:37;30.89;-6.00
67358;HTU21D;54240;51.096;5.878;2023-06-19T14:02:03;30.93;-6.00
67358;HTU21D;54240;51.096;5.878;2023-06-19T14:04:29;31.20;-6.00
67358;HTU21D;54240;51.096;5.878;2023-06-19T14:06:55;31.51;-6.00
67358;HTU21D;54240;51.096;5.878;2023-06-19T14:09:21;31.78;-6.00
67358;HTU21D;54240;51.096;5.878;2023-06-19T14:11:47;31.87;-6.00
67358;HTU21D;54240;51.096;5.878;2023-06-19T14:14:13;32.02;-6.00
67358;HTU21D;54240;51.096;5.878;2023-06-19T14:16:39;32.02;-6.00
67358;HTU21D;54240;51.096;5.878;2023-06-19T14:19:04;31.38;-6.00
67358;HTU21D;54240;51.096;5.878;2023-06-19T14:21:30;31.48;-6.00
67358;HTU21D;54240;51.096;5.878;2023-06-19T14:23:56;31.63;-6.00
67358;HTU21D;54240;51.096;5.878;2023-06-19T14:26:22;31.79;-6.00
67358;HTU21D;54240;51.096;5.878;2023-06-19T14:28:48;31.81;-6.00
67358;HTU21D;54240;51.096;5.878;2023-06-19T14:31:14;31.72;-6.00
67358;HTU21D;54240;51.096;5.878;2023-06-19T14:33:40;31.60;-6.00
67358;HTU21D;54240;51.096;5.878;2023-06-19T14:36:09;31.68;-6.00
67358;HTU21D;54240;51.096;5.878;2023-06-19T14:38:35;31.29;-6.00
67358;HTU21D;54240;51.096;5.878;2023-06-19T14:41:01;31.56;-6.00
67358;HTU21D;54240;51.096;5.878;2023-06-19T14:43:28;31.63;-6.00
67358;HTU21D;54240;51.096;5.878;2023-06-19T14:45:55;31.42;-6.00
67358;HTU21D;54240;51.096;5.878;2023-06-19T14:48:21;31.55;-6.00
67358;HTU21D;54240;51.096;5.878;2023-06-19T14:50:47;31.98;-6.00
67358;HTU21D;54240;51.096;5.878;2023-06-19T14:53:12;32.37;-6.00
67358;HTU21D;54240;51.096;5.878;2023-06-19T14:55:39;32.29;-6.00
67358;HTU21D;54240;51.096;5.878;2023-06-19T14:58:08;32.37;-6.00
67358;HTU21D;54240;51.096;5.878;2023-06-19T15:00:34;32.13;-6.00
67358;HTU21D;54240;51.096;5.878;2023-06-19T15:03:06;32.25;-6.00
67358;HTU21D;54240;51.096;5.878;2023-06-19T15:05:33;32.24;-6.00
67358;HTU21D;54240;51.096;5.878;2023-06-19T15:07:59;31.70;-6.00
67358;HTU21D;54240;51.096;5.878;2023-06-19T15:10:27;31.68;-6.00
67358;HTU21D;54240;51.096;5.878;2023-06-19T15:12:52;31.98;-6.00
67358;HTU21D;54240;51.096;5.878;2023-06-19T15:15:18;32.20;-6.00
67358;HTU21D;54240;51.096;5.878;2023-06-19T15:17:44;31.65;-6.00
67358;HTU21D;54240;51.096;5.878;2023-06-19T15:20:11;32.04;-6.00
67358;HTU21D;54240;51.096;5.878;2023-06-19T15:22:36;32.34;-6.00
67358;HTU21D;54240;51.096;5.878;2023-06-19T15:25:03;32.44;-6.00
67358;HTU21D;54240;51.096;5.878;2023-06-19T15:27:29;32.43;-6.00
67358;HTU21D;54240;51.096;5.878;2023-06-19T15:29:55;32.50;-6.00